Decoded Metar for KTEW (MASON in MI, USA) (IATA:TEW) | Meteo·Mobile Aviation Weather
aviador You're here:

KTEW Decoded Metar

MASON in MI, USA
Report Time2018-10-20 07:55:00
UTC Time2018-10-20 08:15:39
Flight Rules vfr VFR
WindCalm
Visibility9999 m
Phenomena:N/A
Clouds:N/A
Expected CloudBase > 800 ft AGL from Temp-Dew spread
CeilingNone
Temp10°C (ISA -3)
Dew Point08°C (88% RH)
AAT9.6°C
QNH1007 hPa
Density Alt892 ft
Elevation919 ft
Report Wrong Elevation
Raw Report
KTEW 200755Z AUTO 00000KT 10SM CLR 10/08 A2974 RMK AO2
T00990081=

Extra information for KTEW:More info

Metar Taf Metar & Taf Last 4 Metars F.Rules Stats Wind Profile Meteogram Temp Stats Airport Information Weather charts Add Link Nearby VenuesMetar ALERT Operation Metar Decoded Social comments

AIRNAV info for KTEW